sensor_id;sensor_type;location;lat;lon;timestamp;temperature;humidity
24408;DHT22;12542;50.924;4.516;2023-07-13T00:01:28;18.80;99.90
24408;DHT22;12542;50.924;4.516;2023-07-13T00:03:55;18.80;99.90
24408;DHT22;12542;50.924;4.516;2023-07-13T00:06:21;18.80;99.90
24408;DHT22;12542;50.924;4.516;2023-07-13T00:08:47;18.80;99.90
24408;DHT22;12542;50.924;4.516;2023-07-13T00:11:14;18.70;99.90
24408;DHT22;12542;50.924;4.516;2023-07-13T00:13:40;18.70;99.90
24408;DHT22;12542;50.924;4.516;2023-07-13T00:16:07;18.80;99.90
24408;DHT22;12542;50.924;4.516;2023-07-13T00:18:34;18.80;99.90
24408;DHT22;12542;50.924;4.516;2023-07-13T00:20:59;18.80;99.90
24408;DHT22;12542;50.924;4.516;2023-07-13T00:23:33;18.70;99.90
24408;DHT22;12542;50.924;4.516;2023-07-13T00:26:00;18.50;99.90
24408;DHT22;12542;50.924;4.516;2023-07-13T00:28:26;18.50;99.90
24408;DHT22;12542;50.924;4.516;2023-07-13T00:30:51;18.60;99.90
24408;DHT22;12542;50.924;4.516;2023-07-13T00:33:17;18.60;99.90
24408;DHT22;12542;50.924;4.516;2023-07-13T00:35:43;18.70;99.90
24408;DHT22;12542;50.924;4.516;2023-07-13T00:38:09;18.60;99.90
24408;DHT22;12542;50.924;4.516;2023-07-13T00:40:35;18.50;99.90
24408;DHT22;12542;50.924;4.516;2023-07-13T00:43:01;18.30;99.90
24408;DHT22;12542;50.924;4.516;2023-07-13T00:47:53;18.50;99.90
24408;DHT22;12542;50.924;4.516;2023-07-13T00:50:21;18.50;99.90
24408;DHT22;12542;50.924;4.516;2023-07-13T00:52:50;18.30;99.90
24408;DHT22;12542;50.924;4.516;2023-07-13T00:55:17;18.40;99.90
24408;DHT22;12542;50.924;4.516;2023-07-13T00:57:44;18.40;99.90
24408;DHT22;12542;50.924;4.516;2023-07-13T01:00:10;18.60;99.90
24408;DHT22;12542;50.924;4.516;2023-07-13T01:02:44;18.60;99.90
24408;DHT22;12542;50.924;4.516;2023-07-13T01:05:12;18.60;99.90
24408;DHT22;12542;50.924;4.516;2023-07-13T01:07:41;18.50;99.90
24408;DHT22;12542;50.924;4.516;2023-07-13T01:10:08;18.50;99.90
24408;DHT22;12542;50.924;4.516;2023-07-13T01:12:33;18.30;99.90
24408;DHT22;12542;50.924;4.516;2023-07-13T01:15:01;18.30;99.90
24408;DHT22;12542;50.924;4.516;2023-07-13T01:17:33;18.10;99.90
24408;DHT22;12542;50.924;4.516;2023-07-13T01:19:59;18.10;99.90
24408;DHT22;12542;50.924;4.516;2023-07-13T01:22:25;18.10;99.90
24408;DHT22;12542;50.924;4.516;2023-07-13T01:24:53;18.10;99.90
24408;DHT22;12542;50.924;4.516;2023-07-13T01:27:24;18.20;99.90
24408;DHT22;12542;50.924;4.516;2023-07-13T01:29:53;18.20;99.90
24408;DHT22;12542;50.924;4.516;2023-07-13T01:32:27;18.20;99.90
24408;DHT22;12542;50.924;4.516;2023-07-13T01:34:53;18.30;99.90
24408;DHT22;12542;50.924;4.516;2023-07-13T01:37:20;18.30;99.90
24408;DHT22;12542;50.924;4.516;2023-07-13T01:39:46;18.20;99.90
24408;DHT22;12542;50.924;4.516;2023-07-13T01:42:12;18.30;99.90
24408;DHT22;12542;50.924;4.516;2023-07-13T01:44:40;18.20;99.90
24408;DHT22;12542;50.924;4.516;2023-07-13T01:47:06;18.20;99.90
24408;DHT22;12542;50.924;4.516;2023-07-13T01:49:32;18.40;99.90
24408;DHT22;12542;50.924;4.516;2023-07-13T01:51:58;18.30;99.90
24408;DHT22;12542;50.924;4.516;2023-07-13T01:54:26;18.40;99.90
24408;DHT22;12542;50.924;4.516;2023-07-13T01:56:51;18.40;99.90
24408;DHT22;12542;50.924;4.516;2023-07-13T01:59:17;18.40;99.90
24408;DHT22;12542;50.924;4.516;2023-07-13T02:01:43;18.20;99.90
24408;DHT22;12542;50.924;4.516;2023-07-13T02:04:11;18.30;99.90
24408;DHT22;12542;50.924;4.516;2023-07-13T02:06:37;18.30;99.90
24408;DHT22;12542;50.924;4.516;2023-07-13T02:09:02;18.40;99.90
24408;DHT22;12542;50.924;4.516;2023-07-13T02:11:28;18.30;99.90
24408;DHT22;12542;50.924;4.516;2023-07-13T02:13:59;18.50;99.90
24408;DHT22;12542;50.924;4.516;2023-07-13T02:16:26;18.20;99.90
24408;DHT22;12542;50.924;4.516;2023-07-13T02:18:51;18.30;99.90
24408;DHT22;12542;50.924;4.516;2023-07-13T02:21:17;18.40;99.90
24408;DHT22;12542;50.924;4.516;2023-07-13T02:23:43;18.30;99.90
24408;DHT22;12542;50.924;4.516;2023-07-13T02:26:11;18.30;99.90
24408;DHT22;12542;50.924;4.516;2023-07-13T02:28:37;18.40;99.90
24408;DHT22;12542;50.924;4.516;2023-07-13T02:31:08;18.30;99.90
24408;DHT22;12542;50.924;4.516;2023-07-13T02:33:34;18.40;99.90
24408;DHT22;12542;50.924;4.516;2023-07-13T02:36:00;18.40;99.90
24408;DHT22;12542;50.924;4.516;2023-07-13T02:38:25;18.20;99.90
24408;DHT22;12542;50.924;4.516;2023-07-13T02:40:51;18.20;99.90
24408;DHT22;12542;50.924;4.516;2023-07-13T02:43:17;18.30;99.90
24408;DHT22;12542;50.924;4.516;2023-07-13T02:45:46;18.30;99.90
24408;DHT22;12542;50.924;4.516;2023-07-13T02:48:13;18.20;99.90
24408;DHT22;12542;50.924;4.516;2023-07-13T02:50:39;18.30;99.90
24408;DHT22;12542;50.924;4.516;2023-07-13T02:53:05;18.30;99.90
24408;DHT22;12542;50.924;4.516;2023-07-13T02:55:31;18.20;99.90
24408;DHT22;12542;50.924;4.516;2023-07-13T02:57:56;18.10;99.90
24408;DHT22;12542;50.924;4.516;2023-07-13T03:00:24;18.30;99.90
24408;DHT22;12542;50.924;4.516;2023-07-13T03:02:50;18.40;99.90
24408;DHT22;12542;50.924;4.516;2023-07-13T03:05:16;18.40;99.90
24408;DHT22;12542;50.924;4.516;2023-07-13T03:07:42;18.40;99.90
24408;DHT22;12542;50.924;4.516;2023-07-13T03:10:08;18.20;99.90
24408;DHT22;12542;50.924;4.516;2023-07-13T03:12:34;18.20;99.90
24408;DHT22;12542;50.924;4.516;2023-07-13T03:15:00;18.30;99.90
24408;DHT22;12542;50.924;4.516;2023-07-13T03:17:26;18.30;99.90
24408;DHT22;12542;50.924;4.516;2023-07-13T03:19:51;18.20;99.90
24408;DHT22;12542;50.924;4.516;2023-07-13T03:22:18;18.30;99.90
24408;DHT22;12542;50.924;4.516;2023-07-13T03:24:44;18.40;99.90
24408;DHT22;12542;50.924;4.516;2023-07-13T03:27:10;18.50;99.90
24408;DHT22;12542;50.924;4.516;2023-07-13T03:29:35;18.40;99.90
24408;DHT22;12542;50.924;4.516;2023-07-13T03:32:01;18.40;99.90
24408;DHT22;12542;50.924;4.516;2023-07-13T03:34:27;18.40;99.90
24408;DHT22;12542;50.924;4.516;2023-07-13T03:36:56;18.40;99.90
24408;DHT22;12542;50.924;4.516;2023-07-13T03:39:21;18.50;99.90
24408;DHT22;12542;50.924;4.516;2023-07-13T03:41:47;18.50;99.90
24408;DHT22;12542;50.924;4.516;2023-07-13T03:44:15;18.50;99.90
24408;DHT22;12542;50.924;4.516;2023-07-13T03:46:44;18.60;99.90
24408;DHT22;12542;50.924;4.516;2023-07-13T03:49:10;18.60;99.90
24408;DHT22;12542;50.924;4.516;2023-07-13T03:51:36;18.50;99.90
24408;DHT22;12542;50.924;4.516;2023-07-13T03:54:03;18.50;99.90
24408;DHT22;12542;50.924;4.516;2023-07-13T03:56:29;18.50;99.90
24408;DHT22;12542;50.924;4.516;2023-07-13T03:58:56;18.60;99.90
24408;DHT22;12542;50.924;4.516;2023-07-13T04:01:23;18.60;99.90
24408;DHT22;12542;50.924;4.516;2023-07-13T04:03:50;18.60;99.90
24408;DHT22;12542;50.924;4.516;2023-07-13T04:06:37;18.60;99.90
24408;DHT22;12542;50.924;4.516;2023-07-13T04:09:04;18.70;99.90
24408;DHT22;12542;50.924;4.516;2023-07-13T04:11:33;18.60;99.90
24408;DHT22;12542;50.924;4.516;2023-07-13T04:14:01;18.60;99.90
24408;DHT22;12542;50.924;4.516;2023-07-13T04:16:28;18.70;99.90
24408;DHT22;12542;50.924;4.516;2023-07-13T04:18:55;18.80;99.90
24408;DHT22;12542;50.924;4.516;2023-07-13T04:21:25;18.90;99.90
24408;DHT22;12542;50.924;4.516;2023-07-13T04:23:51;18.90;99.90
24408;DHT22;12542;50.924;4.516;2023-07-13T04:26:16;18.90;99.90
24408;DHT22;12542;50.924;4.516;2023-07-13T04:28:42;18.90;99.90
24408;DHT22;12542;50.924;4.516;2023-07-13T04:31:08;18.80;99.90
24408;DHT22;12542;50.924;4.516;2023-07-13T04:33:33;18.80;99.90
24408;DHT22;12542;50.924;4.516;2023-07-13T04:35:59;18.70;99.90
24408;DHT22;12542;50.924;4.516;2023-07-13T04:38:29;18.90;99.90
24408;DHT22;12542;50.924;4.516;2023-07-13T04:40:56;19.10;99.90
24408;DHT22;12542;50.924;4.516;2023-07-13T04:43:23;19.10;99.90
24408;DHT22;12542;50.924;4.516;2023-07-13T04:45:52;19.20;99.90
24408;DHT22;12542;50.924;4.516;2023-07-13T04:48:18;19.20;99.90
24408;DHT22;12542;50.924;4.516;2023-07-13T04:50:43;19.30;99.90
24408;DHT22;12542;50.924;4.516;2023-07-13T04:53:09;19.40;99.90
24408;DHT22;12542;50.924;4.516;2023-07-13T04:55:36;19.20;99.90
24408;DHT22;12542;50.924;4.516;2023-07-13T04:58:02;19.30;99.90
24408;DHT22;12542;50.924;4.516;2023-07-13T05:00:31;19.30;99.90
24408;DHT22;12542;50.924;4.516;2023-07-13T05:02:58;19.30;99.90
24408;DHT22;12542;50.924;4.516;2023-07-13T05:05:25;19.40;99.90
24408;DHT22;12542;50.924;4.516;2023-07-13T05:07:51;19.40;99.90
24408;DHT22;12542;50.924;4.516;2023-07-13T05:10:17;19.30;99.90
24408;DHT22;12542;50.924;4.516;2023-07-13T05:12:43;19.30;99.90
24408;DHT22;12542;50.924;4.516;2023-07-13T05:15:09;19.30;99.90
24408;DHT22;12542;50.924;4.516;2023-07-13T05:17:35;19.30;99.90
24408;DHT22;12542;50.924;4.516;2023-07-13T05:20:03;19.30;99.90
24408;DHT22;12542;50.924;4.516;2023-07-13T05:22:29;19.20;99.90
24408;DHT22;12542;50.924;4.516;2023-07-13T05:24:54;19.20;99.90
24408;DHT22;12542;50.924;4.516;2023-07-13T05:27:20;19.30;99.90
24408;DHT22;12542;50.924;4.516;2023-07-13T05:29:46;19.30;99.90
24408;DHT22;12542;50.924;4.516;2023-07-13T05:32:11;19.40;99.90
24408;DHT22;12542;50.924;4.516;2023-07-13T05:34:37;19.50;99.90
24408;DHT22;12542;50.924;4.516;2023-07-13T05:37:03;19.50;99.90
24408;DHT22;12542;50.924;4.516;2023-07-13T05:39:29;19.50;99.90
24408;DHT22;12542;50.924;4.516;2023-07-13T05:41:54;19.50;99.90
24408;DHT22;12542;50.924;4.516;2023-07-13T05:44:20;19.50;99.90
24408;DHT22;12542;50.924;4.516;2023-07-13T05:46:48;19.60;99.90
24408;DHT22;12542;50.924;4.516;2023-07-13T05:49:13;19.60;99.90
24408;DHT22;12542;50.924;4.516;2023-07-13T05:51:39;19.50;99.90
24408;DHT22;12542;50.924;4.516;2023-07-13T05:54:05;19.50;99.90
24408;DHT22;12542;50.924;4.516;2023-07-13T05:56:30;19.60;99.90
24408;DHT22;12542;50.924;4.516;2023-07-13T05:58:56;19.60;99.90
24408;DHT22;12542;50.924;4.516;2023-07-13T06:01:22;19.70;99.90
24408;DHT22;12542;50.924;4.516;2023-07-13T06:03:49;19.70;99.90
24408;DHT22;12542;50.924;4.516;2023-07-13T06:06:15;19.60;99.90
24408;DHT22;12542;50.924;4.516;2023-07-13T06:08:41;19.40;99.90
24408;DHT22;12542;50.924;4.516;2023-07-13T06:13:39;19.30;99.90
24408;DHT22;12542;50.924;4.516;2023-07-13T06:16:05;19.00;99.90
24408;DHT22;12542;50.924;4.516;2023-07-13T06:18:32;19.10;99.90
24408;DHT22;12542;50.924;4.516;2023-07-13T06:20:57;19.20;99.90
24408;DHT22;12542;50.924;4.516;2023-07-13T06:23:24;19.10;99.90
24408;DHT22;12542;50.924;4.516;2023-07-13T06:25:50;19.10;99.90
24408;DHT22;12542;50.924;4.516;2023-07-13T06:28:15;19.30;99.90
24408;DHT22;12542;50.924;4.516;2023-07-13T06:30:41;19.30;99.90
24408;DHT22;12542;50.924;4.516;2023-07-13T06:33:07;19.30;99.90
24408;DHT22;12542;50.924;4.516;2023-07-13T06:35:32;19.30;99.90
24408;DHT22;12542;50.924;4.516;2023-07-13T06:37:59;19.60;99.90
24408;DHT22;12542;50.924;4.516;2023-07-13T06:40:27;19.80;99.90
24408;DHT22;12542;50.924;4.516;2023-07-13T06:42:54;19.80;99.90
24408;DHT22;12542;50.924;4.516;2023-07-13T06:45:20;20.00;99.90
24408;DHT22;12542;50.924;4.516;2023-07-13T06:47:45;19.90;99.90
24408;DHT22;12542;50.924;4.516;2023-07-13T06:50:11;20.10;99.90
24408;DHT22;12542;50.924;4.516;2023-07-13T06:52:36;20.10;99.90
24408;DHT22;12542;50.924;4.516;2023-07-13T06:55:02;20.20;99.90
24408;DHT22;12542;50.924;4.516;2023-07-13T06:57:28;20.30;99.90
24408;DHT22;12542;50.924;4.516;2023-07-13T06:59:54;20.40;99.90
24408;DHT22;12542;50.924;4.516;2023-07-13T07:02:19;20.60;99.90
24408;DHT22;12542;50.924;4.516;2023-07-13T07:04:45;20.60;99.90
24408;DHT22;12542;50.924;4.516;2023-07-13T07:07:11;20.90;99.90
24408;DHT22;12542;50.924;4.516;2023-07-13T07:09:36;21.20;99.90
24408;DHT22;12542;50.924;4.516;2023-07-13T07:12:03;21.40;99.90
24408;DHT22;12542;50.924;4.516;2023-07-13T07:14:29;21.50;99.90
24408;DHT22;12542;50.924;4.516;2023-07-13T07:16:55;21.30;99.90
24408;DHT22;12542;50.924;4.516;2023-07-13T07:19:21;21.50;99.90
24408;DHT22;12542;50.924;4.516;2023-07-13T07:21:46;21.70;99.90
24408;DHT22;12542;50.924;4.516;2023-07-13T07:24:14;21.90;99.90
24408;DHT22;12542;50.924;4.516;2023-07-13T07:26:41;21.80;99.90
24408;DHT22;12542;50.924;4.516;2023-07-13T07:29:06;21.80;99.90
24408;DHT22;12542;50.924;4.516;2023-07-13T07:31:34;22.10;99.90
24408;DHT22;12542;50.924;4.516;2023-07-13T07:34:02;22.10;99.90
24408;DHT22;12542;50.924;4.516;2023-07-13T07:36:28;22.30;99.90
24408;DHT22;12542;50.924;4.516;2023-07-13T07:38:54;22.40;99.90
24408;DHT22;12542;50.924;4.516;2023-07-13T07:41:19;22.10;99.90
24408;DHT22;12542;50.924;4.516;2023-07-13T07:43:45;22.10;99.90
24408;DHT22;12542;50.924;4.516;2023-07-13T07:46:11;22.20;99.90
24408;DHT22;12542;50.924;4.516;2023-07-13T07:48:36;22.40;99.90
24408;DHT22;12542;50.924;4.516;2023-07-13T07:51:02;22.20;99.90
24408;DHT22;12542;50.924;4.516;2023-07-13T07:53:28;22.40;99.90
24408;DHT22;12542;50.924;4.516;2023-07-13T07:55:53;22.50;99.90
24408;DHT22;12542;50.924;4.516;2023-07-13T07:58:19;23.20;99.90
24408;DHT22;12542;50.924;4.516;2023-07-13T08:00:45;23.80;99.90
24408;DHT22;12542;50.924;4.516;2023-07-13T08:03:10;24.60;99.90
24408;DHT22;12542;50.924;4.516;2023-07-13T08:05:36;24.80;99.90
24408;DHT22;12542;50.924;4.516;2023-07-13T08:08:02;24.80;99.90
24408;DHT22;12542;50.924;4.516;2023-07-13T08:10:28;24.70;99.90
24408;DHT22;12542;50.924;4.516;2023-07-13T08:12:54;24.70;99.90
24408;DHT22;12542;50.924;4.516;2023-07-13T08:15:19;25.00;99.90
24408;DHT22;12542;50.924;4.516;2023-07-13T08:17:47;25.80;99.90
24408;DHT22;12542;50.924;4.516;2023-07-13T08:20:13;26.00;99.90
24408;DHT22;12542;50.924;4.516;2023-07-13T08:22:39;26.30;99.90
24408;DHT22;12542;50.924;4.516;2023-07-13T08:25:05;26.10;99.90
24408;DHT22;12542;50.924;4.516;2023-07-13T08:27:31;25.80;99.90
24408;DHT22;12542;50.924;4.516;2023-07-13T08:29:59;25.60;99.90
24408;DHT22;12542;50.924;4.516;2023-07-13T08:32:25;25.60;99.90
24408;DHT22;12542;50.924;4.516;2023-07-13T08:34:53;25.70;99.90
24408;DHT22;12542;50.924;4.516;2023-07-13T08:37:19;25.40;99.90
24408;DHT22;12542;50.924;4.516;2023-07-13T08:39:45;25.40;99.90
24408;DHT22;12542;50.924;4.516;2023-07-13T08:45:07;25.20;99.90
24408;DHT22;12542;50.924;4.516;2023-07-13T08:47:39;25.80;99.90
24408;DHT22;12542;50.924;4.516;2023-07-13T08:50:11;26.20;99.90
24408;DHT22;12542;50.924;4.516;2023-07-13T08:52:44;26.10;99.90
24408;DHT22;12542;50.924;4.516;2023-07-13T08:55:24;26.20;99.90
24408;DHT22;12542;50.924;4.516;2023-07-13T08:58:12;26.50;99.90
24408;DHT22;12542;50.924;4.516;2023-07-13T09:01:05;27.00;99.90
24408;DHT22;12542;50.924;4.516;2023-07-13T09:03:41;27.20;99.90
24408;DHT22;12542;50.924;4.516;2023-07-13T09:06:11;26.40;99.90
24408;DHT22;12542;50.924;4.516;2023-07-13T09:08:58;26.60;99.90
24408;DHT22;12542;50.924;4.516;2023-07-13T09:14:31;27.50;99.90
24408;DHT22;12542;50.924;4.516;2023-07-13T09:16:59;27.80;99.90
24408;DHT22;12542;50.924;4.516;2023-07-13T09:19:30;28.00;98.90
24408;DHT22;12542;50.924;4.516;2023-07-13T09:21:59;28.30;98.80
24408;DHT22;12542;50.924;4.516;2023-07-13T09:27:27;28.60;95.90
24408;DHT22;12542;50.924;4.516;2023-07-13T09:29:57;27.90;96.00
24408;DHT22;12542;50.924;4.516;2023-07-13T09:32:26;27.00;98.30
24408;DHT22;12542;50.924;4.516;2023-07-13T09:34:54;27.20;99.10
24408;DHT22;12542;50.924;4.516;2023-07-13T09:37:22;27.40;97.90
24408;DHT22;12542;50.924;4.516;2023-07-13T09:39:49;27.10;98.00
24408;DHT22;12542;50.924;4.516;2023-07-13T09:42:17;27.40;97.50
24408;DHT22;12542;50.924;4.516;2023-07-13T09:45:03;27.70;98.30
24408;DHT22;12542;50.924;4.516;2023-07-13T09:47:33;28.20;96.60
24408;DHT22;12542;50.924;4.516;2023-07-13T09:50:06;28.20;96.50
24408;DHT22;12542;50.924;4.516;2023-07-13T09:52:49;28.40;96.20
24408;DHT22;12542;50.924;4.516;2023-07-13T09:57:56;28.80;96.20
24408;DHT22;12542;50.924;4.516;2023-07-13T10:00:25;28.50;95.40
24408;DHT22;12542;50.924;4.516;2023-07-13T10:03:05;28.40;95.80
24408;DHT22;12542;50.924;4.516;2023-07-13T10:05:39;27.60;96.70
24408;DHT22;12542;50.924;4.516;2023-07-13T10:08:05;27.40;97.80
24408;DHT22;12542;50.924;4.516;2023-07-13T10:10:33;27.40;96.70
24408;DHT22;12542;50.924;4.516;2023-07-13T10:13:01;27.00;96.60
24408;DHT22;12542;50.924;4.516;2023-07-13T10:15:27;27.10;97.10
24408;DHT22;12542;50.924;4.516;2023-07-13T10:17:56;27.60;95.90
24408;DHT22;12542;50.924;4.516;2023-07-13T10:20:24;27.60;95.10
24408;DHT22;12542;50.924;4.516;2023-07-13T10:23:02;27.80;96.80
24408;DHT22;12542;50.924;4.516;2023-07-13T10:25:31;27.80;95.60
24408;DHT22;12542;50.924;4.516;2023-07-13T10:28:27;27.70;95.00
24408;DHT22;12542;50.924;4.516;2023-07-13T10:30:54;28.00;95.20
24408;DHT22;12542;50.924;4.516;2023-07-13T10:33:21;28.30;95.30
24408;DHT22;12542;50.924;4.516;2023-07-13T10:35:53;28.10;94.10
24408;DHT22;12542;50.924;4.516;2023-07-13T10:38:22;28.50;94.70
24408;DHT22;12542;50.924;4.516;2023-07-13T10:41:07;28.30;93.10
24408;DHT22;12542;50.924;4.516;2023-07-13T10:43:46;27.70;94.10
24408;DHT22;12542;50.924;4.516;2023-07-13T10:46:17;27.50;95.10
24408;DHT22;12542;50.924;4.516;2023-07-13T10:48:49;27.70;94.60
24408;DHT22;12542;50.924;4.516;2023-07-13T10:51:18;27.60;94.40
24408;DHT22;12542;50.924;4.516;2023-07-13T10:53:47;27.10;95.00
24408;DHT22;12542;50.924;4.516;2023-07-13T10:56:31;26.40;95.80
24408;DHT22;12542;50.924;4.516;2023-07-13T11:01:51;26.20;97.10
24408;DHT22;12542;50.924;4.516;2023-07-13T11:04:19;26.20;97.10
24408;DHT22;12542;50.924;4.516;2023-07-13T11:06:48;26.00;97.10
24408;DHT22;12542;50.924;4.516;2023-07-13T11:11:45;25.70;99.90
24408;DHT22;12542;50.924;4.516;2023-07-13T11:14:33;25.20;99.90
24408;DHT22;12542;50.924;4.516;2023-07-13T11:18:10;24.90;99.90
24408;DHT22;12542;50.924;4.516;2023-07-13T11:25:39;25.80;99.90
24408;DHT22;12542;50.924;4.516;2023-07-13T11:33:47;26.40;99.90
24408;DHT22;12542;50.924;4.516;2023-07-13T11:36:16;26.40;99.90
24408;DHT22;12542;50.924;4.516;2023-07-13T11:38:46;26.00;99.90
24408;DHT22;12542;50.924;4.516;2023-07-13T11:41:21;26.10;99.90
24408;DHT22;12542;50.924;4.516;2023-07-13T11:44:01;25.90;99.90
24408;DHT22;12542;50.924;4.516;2023-07-13T11:46:30;26.00;99.90
24408;DHT22;12542;50.924;4.516;2023-07-13T11:48:58;26.20;99.90
24408;DHT22;12542;50.924;4.516;2023-07-13T11:51:29;26.30;99.90
24408;DHT22;12542;50.924;4.516;2023-07-13T11:54:10;26.30;99.90
24408;DHT22;12542;50.924;4.516;2023-07-13T11:56:38;26.10;99.40
24408;DHT22;12542;50.924;4.516;2023-07-13T11:59:06;25.60;99.90
24408;DHT22;12542;50.924;4.516;2023-07-13T12:01:34;25.40;99.90
24408;DHT22;12542;50.924;4.516;2023-07-13T12:04:03;25.00;99.90
24408;DHT22;12542;50.924;4.516;2023-07-13T12:06:34;24.40;99.90
24408;DHT22;12542;50.924;4.516;2023-07-13T12:09:11;24.10;99.90
24408;DHT22;12542;50.924;4.516;2023-07-13T12:11:43;23.70;99.90
24408;DHT22;12542;50.924;4.516;2023-07-13T12:14:16;23.20;99.90
24408;DHT22;12542;50.924;4.516;2023-07-13T12:16:42;22.90;99.90
24408;DHT22;12542;50.924;4.516;2023-07-13T12:19:18;22.70;99.90
24408;DHT22;12542;50.924;4.516;2023-07-13T12:21:44;22.60;99.90
24408;DHT22;12542;50.924;4.516;2023-07-13T12:24:18;22.70;99.90
24408;DHT22;12542;50.924;4.516;2023-07-13T12:26:49;22.50;99.90
24408;DHT22;12542;50.924;4.516;2023-07-13T12:29:16;22.50;99.90
24408;DHT22;12542;50.924;4.516;2023-07-13T12:31:44;21.90;99.90
24408;DHT22;12542;50.924;4.516;2023-07-13T12:34:15;21.50;99.90
24408;DHT22;12542;50.924;4.516;2023-07-13T12:37:02;21.50;99.90
24408;DHT22;12542;50.924;4.516;2023-07-13T12:39:45;21.00;99.90
24408;DHT22;12542;50.924;4.516;2023-07-13T12:42:27;20.90;99.90
24408;DHT22;12542;50.924;4.516;2023-07-13T12:45:01;20.80;99.90
24408;DHT22;12542;50.924;4.516;2023-07-13T12:47:28;20.50;99.90
24408;DHT22;12542;50.924;4.516;2023-07-13T12:49:59;20.20;99.90
24408;DHT22;12542;50.924;4.516;2023-07-13T12:52:31;20.00;99.90
24408;DHT22;12542;50.924;4.516;2023-07-13T12:55:12;20.00;99.90
24408;DHT22;12542;50.924;4.516;2023-07-13T13:00:33;19.90;99.90
24408;DHT22;12542;50.924;4.516;2023-07-13T13:05:44;20.00;99.90
24408;DHT22;12542;50.924;4.516;2023-07-13T13:08:11;20.10;99.90
24408;DHT22;12542;50.924;4.516;2023-07-13T13:10:37;20.20;99.90
24408;DHT22;12542;50.924;4.516;2023-07-13T13:13:03;20.30;99.90
24408;DHT22;12542;50.924;4.516;2023-07-13T13:15:29;20.50;99.90
24408;DHT22;12542;50.924;4.516;2023-07-13T13:17:55;20.60;99.90
24408;DHT22;12542;50.924;4.516;2023-07-13T13:20:22;20.70;99.90
24408;DHT22;12542;50.924;4.516;2023-07-13T13:22:48;20.80;99.90
24408;DHT22;12542;50.924;4.516;2023-07-13T13:25:15;20.90;99.90
24408;DHT22;12542;50.924;4.516;2023-07-13T13:27:42;20.90;99.90
24408;DHT22;12542;50.924;4.516;2023-07-13T13:30:18;21.10;99.90
24408;DHT22;12542;50.924;4.516;2023-07-13T13:32:47;21.30;99.90
24408;DHT22;12542;50.924;4.516;2023-07-13T13:35:14;21.40;99.90
24408;DHT22;12542;50.924;4.516;2023-07-13T13:37:40;21.30;99.90
24408;DHT22;12542;50.924;4.516;2023-07-13T13:42:41;21.50;99.90
24408;DHT22;12542;50.924;4.516;2023-07-13T13:45:09;21.40;99.90
24408;DHT22;12542;50.924;4.516;2023-07-13T13:47:35;21.30;99.90
24408;DHT22;12542;50.924;4.516;2023-07-13T13:50:09;21.40;99.90
24408;DHT22;12542;50.924;4.516;2023-07-13T13:52:36;21.60;99.90
24408;DHT22;12542;50.924;4.516;2023-07-13T13:55:04;21.60;99.90
24408;DHT22;12542;50.924;4.516;2023-07-13T13:57:31;21.80;99.90
24408;DHT22;12542;50.924;4.516;2023-07-13T13:59:56;22.10;99.90
24408;DHT22;12542;50.924;4.516;2023-07-13T14:02:27;22.50;99.90
24408;DHT22;12542;50.924;4.516;2023-07-13T14:04:59;22.80;99.90
24408;DHT22;12542;50.924;4.516;2023-07-13T14:07:26;23.20;99.90
24408;DHT22;12542;50.924;4.516;2023-07-13T14:10:01;23.60;99.90
24408;DHT22;12542;50.924;4.516;2023-07-13T14:12:28;24.20;99.90
24408;DHT22;12542;50.924;4.516;2023-07-13T14:14:57;24.70;99.90
24408;DHT22;12542;50.924;4.516;2023-07-13T14:17:25;24.90;99.90
24408;DHT22;12542;50.924;4.516;2023-07-13T14:19:52;25.10;99.90
24408;DHT22;12542;50.924;4.516;2023-07-13T14:22:23;25.10;99.90
24408;DHT22;12542;50.924;4.516;2023-07-13T14:24:51;25.40;99.90
24408;DHT22;12542;50.924;4.516;2023-07-13T14:27:17;25.50;99.90
24408;DHT22;12542;50.924;4.516;2023-07-13T14:29:42;25.50;99.90
24408;DHT22;12542;50.924;4.516;2023-07-13T14:32:12;25.60;99.90
24408;DHT22;12542;50.924;4.516;2023-07-13T14:34:40;25.70;99.90
24408;DHT22;12542;50.924;4.516;2023-07-13T14:37:13;25.80;99.90
24408;DHT22;12542;50.924;4.516;2023-07-13T14:39:40;26.00;99.90
24408;DHT22;12542;50.924;4.516;2023-07-13T14:42:09;26.10;99.90
24408;DHT22;12542;50.924;4.516;2023-07-13T14:44:35;25.90;99.90
24408;DHT22;12542;50.924;4.516;2023-07-13T14:47:03;26.00;99.90
24408;DHT22;12542;50.924;4.516;2023-07-13T14:49:34;26.30;99.90
24408;DHT22;12542;50.924;4.516;2023-07-13T14:52:08;26.30;99.90
24408;DHT22;12542;50.924;4.516;2023-07-13T14:54:36;25.50;99.90
24408;DHT22;12542;50.924;4.516;2023-07-13T14:57:12;26.00;99.90
24408;DHT22;12542;50.924;4.516;2023-07-13T14:59:38;26.00;99.90
24408;DHT22;12542;50.924;4.516;2023-07-13T15:02:18;25.30;99.90
24408;DHT22;12542;50.924;4.516;2023-07-13T15:04:44;25.20;99.90
24408;DHT22;12542;50.924;4.516;2023-07-13T15:07:11;25.50;99.90
24408;DHT22;12542;50.924;4.516;2023-07-13T15:09:39;25.50;99.90
24408;DHT22;12542;50.924;4.516;2023-07-13T15:12:05;25.50;99.90
24408;DHT22;12542;50.924;4.516;2023-07-13T15:14:31;25.70;99.90
24408;DHT22;12542;50.924;4.516;2023-07-13T15:17:00;25.60;99.90
24408;DHT22;12542;50.924;4.516;2023-07-13T15:19:28;25.50;99.90
24408;DHT22;12542;50.924;4.516;2023-07-13T15:21:55;25.40;99.90
24408;DHT22;12542;50.924;4.516;2023-07-13T15:24:23;25.60;99.90
24408;DHT22;12542;50.924;4.516;2023-07-13T15:26:49;25.50;99.90
24408;DHT22;12542;50.924;4.516;2023-07-13T15:29:15;25.30;98.70
24408;DHT22;12542;50.924;4.516;2023-07-13T15:31:42;25.40;99.90
24408;DHT22;12542;50.924;4.516;2023-07-13T15:34:17;25.70;99.90
24408;DHT22;12542;50.924;4.516;2023-07-13T15:36:44;25.80;98.50
24408;DHT22;12542;50.924;4.516;2023-07-13T15:39:14;25.50;99.00
24408;DHT22;12542;50.924;4.516;2023-07-13T15:41:42;25.50;99.90
24408;DHT22;12542;50.924;4.516;2023-07-13T15:44:29;25.70;99.90
24408;DHT22;12542;50.924;4.516;2023-07-13T15:46:56;26.00;99.30
24408;DHT22;12542;50.924;4.516;2023-07-13T15:49:22;25.60;98.60
24408;DHT22;12542;50.924;4.516;2023-07-13T15:51:48;25.30;99.90
24408;DHT22;12542;50.924;4.516;2023-07-13T15:54:17;25.20;99.90
24408;DHT22;12542;50.924;4.516;2023-07-13T15:56:45;24.90;99.90
24408;DHT22;12542;50.924;4.516;2023-07-13T15:59:14;25.00;99.90
24408;DHT22;12542;50.924;4.516;2023-07-13T16:01:40;24.90;99.90
24408;DHT22;12542;50.924;4.516;2023-07-13T16:04:07;24.80;99.90
24408;DHT22;12542;50.924;4.516;2023-07-13T16:06:36;24.70;99.90
24408;DHT22;12542;50.924;4.516;2023-07-13T16:09:03;24.90;99.90
24408;DHT22;12542;50.924;4.516;2023-07-13T16:11:34;24.90;99.90
24408;DHT22;12542;50.924;4.516;2023-07-13T16:14:01;24.80;99.90
24408;DHT22;12542;50.924;4.516;2023-07-13T16:16:30;24.90;99.90
24408;DHT22;12542;50.924;4.516;2023-07-13T16:18:58;24.90;99.90